sensor_id;sensor_type;location;lat;lon;timestamp;pressure;altitude;pressure_sealevel;temperature;humidity
64844;BME280;51310;52.198;5.422;2023-03-12T00:00:51;100928.44;;;0.54;100.00
64844;BME280;51310;52.198;5.422;2023-03-12T00:03:17;100926.19;;;0.50;100.00
64844;BME280;51310;52.198;5.422;2023-03-12T00:05:44;100921.75;;;0.55;100.00
64844;BME280;51310;52.198;5.422;2023-03-12T00:08:11;100918.22;;;0.60;100.00
64844;BME280;51310;52.198;5.422;2023-03-12T00:10:39;100912.53;;;0.55;100.00
64844;BME280;51310;52.198;5.422;2023-03-12T00:13:06;100913.66;;;0.57;100.00
64844;BME280;51310;52.198;5.422;2023-03-12T00:15:36;100917.31;;;0.59;100.00
64844;BME280;51310;52.198;5.422;2023-03-12T00:18:02;100911.34;;;0.59;100.00
64844;BME280;51310;52.198;5.422;2023-03-12T00:20:27;100911.25;;;0.65;100.00
64844;BME280;51310;52.198;5.422;2023-03-12T00:22:53;100911.47;;;0.66;100.00
64844;BME280;51310;52.198;5.422;2023-03-12T00:25:19;100904.38;;;0.64;100.00
64844;BME280;51310;52.198;5.422;2023-03-12T00:27:45;100904.59;;;0.65;100.00
64844;BME280;51310;52.198;5.422;2023-03-12T00:30:12;100900.53;;;0.73;100.00
64844;BME280;51310;52.198;5.422;2023-03-12T00:32:38;100896.59;;;0.75;100.00
64844;BME280;51310;52.198;5.422;2023-03-12T00:35:05;100894.06;;;0.75;100.00
64844;BME280;51310;52.198;5.422;2023-03-12T00:37:31;100889.63;;;0.79;100.00
64844;BME280;51310;52.198;5.422;2023-03-12T00:39:59;100897.84;;;0.84;100.00
64844;BME280;51310;52.198;5.422;2023-03-12T00:42:27;100901.09;;;0.83;100.00
64844;BME280;51310;52.198;5.422;2023-03-12T00:44:53;100902.84;;;0.90;100.00
64844;BME280;51310;52.198;5.422;2023-03-12T00:47:19;100894.63;;;0.85;100.00
64844;BME280;51310;52.198;5.422;2023-03-12T00:49:44;100895.31;;;0.84;100.00
64844;BME280;51310;52.198;5.422;2023-03-12T00:52:10;100893.44;;;0.89;100.00
64844;BME280;51310;52.198;5.422;2023-03-12T00:54:36;100893.72;;;0.85;100.00
64844;BME280;51310;52.198;5.422;2023-03-12T00:57:02;100896.94;;;0.84;100.00
64844;BME280;51310;52.198;5.422;2023-03-12T00:59:28;100888.44;;;0.83;100.00
64844;BME280;51310;52.198;5.422;2023-03-12T01:01:54;100886.59;;;0.82;100.00
64844;BME280;51310;52.198;5.422;2023-03-12T01:04:19;100880.72;;;0.76;100.00
64844;BME280;51310;52.198;5.422;2023-03-12T01:06:45;100872.28;;;0.70;100.00
64844;BME280;51310;52.198;5.422;2023-03-12T01:09:11;100869.59;;;0.63;100.00
64844;BME280;51310;52.198;5.422;2023-03-12T01:11:37;100865.16;;;0.54;100.00
64844;BME280;51310;52.198;5.422;2023-03-12T01:14:06;100865.44;;;0.50;100.00
64844;BME280;51310;52.198;5.422;2023-03-12T01:16:32;100868.03;;;0.45;100.00
64844;BME280;51310;52.198;5.422;2023-03-12T01:19:00;100855.66;;;0.40;100.00
64844;BME280;51310;52.198;5.422;2023-03-12T01:21:28;100860.31;;;0.37;100.00
64844;BME280;51310;52.198;5.422;2023-03-12T01:23:54;100859.59;;;0.38;100.00
64844;BME280;51310;52.198;5.422;2023-03-12T01:26:21;100863.75;;;0.38;100.00
64844;BME280;51310;52.198;5.422;2023-03-12T01:28:48;100861.50;;;0.34;100.00
64844;BME280;51310;52.198;5.422;2023-03-12T01:31:16;100859.88;;;0.34;100.00
64844;BME280;51310;52.198;5.422;2023-03-12T01:33:43;100863.34;;;0.35;100.00
64844;BME280;51310;52.198;5.422;2023-03-12T01:36:20;100863.97;;;0.39;100.00
64844;BME280;51310;52.198;5.422;2023-03-12T01:38:47;100868.53;;;0.42;100.00
64844;BME280;51310;52.198;5.422;2023-03-12T01:41:14;100860.44;;;0.45;100.00
64844;BME280;51310;52.198;5.422;2023-03-12T01:43:40;100853.75;;;0.45;100.00
64844;BME280;51310;52.198;5.422;2023-03-12T01:46:30;100852.56;;;0.49;100.00
64844;BME280;51310;52.198;5.422;2023-03-12T01:49:33;100846.31;;;0.52;100.00
64844;BME280;51310;52.198;5.422;2023-03-12T01:52:31;100846.91;;;0.57;100.00
64844;BME280;51310;52.198;5.422;2023-03-12T01:55:08;100842.97;;;0.59;100.00
64844;BME280;51310;52.198;5.422;2023-03-12T01:57:56;100835.59;;;0.60;100.00
64844;BME280;51310;52.198;5.422;2023-03-12T02:00:26;100839.53;;;0.71;100.00
64844;BME280;51310;52.198;5.422;2023-03-12T02:02:59;100835.91;;;0.69;100.00
64844;BME280;51310;52.198;5.422;2023-03-12T02:05:38;100828.50;;;0.71;100.00
64844;BME280;51310;52.198;5.422;2023-03-12T02:08:09;100821.63;;;0.70;100.00
64844;BME280;51310;52.198;5.422;2023-03-12T02:10:35;100824.34;;;0.71;100.00
64844;BME280;51310;52.198;5.422;2023-03-12T02:13:01;100817.69;;;0.72;100.00
64844;BME280;51310;52.198;5.422;2023-03-12T02:15:27;100808.69;;;0.74;100.00
64844;BME280;51310;52.198;5.422;2023-03-12T02:17:53;100804.91;;;0.77;100.00
64844;BME280;51310;52.198;5.422;2023-03-12T02:21:15;100814.06;;;0.82;100.00
64844;BME280;51310;52.198;5.422;2023-03-12T02:26:18;100800.16;;;0.86;100.00
64844;BME280;51310;52.198;5.422;2023-03-12T02:28:48;100792.25;;;0.90;100.00
64844;BME280;51310;52.198;5.422;2023-03-12T02:31:20;100790.84;;;0.92;100.00
64844;BME280;51310;52.198;5.422;2023-03-12T02:33:47;100785.47;;;0.96;100.00
64844;BME280;51310;52.198;5.422;2023-03-12T02:36:13;100782.72;;;0.95;100.00
64844;BME280;51310;52.198;5.422;2023-03-12T02:38:46;100784.28;;;1.00;100.00
64844;BME280;51310;52.198;5.422;2023-03-12T02:41:30;100781.53;;;1.11;100.00
64844;BME280;51310;52.198;5.422;2023-03-12T02:46:50;100784.38;;;1.07;100.00
64844;BME280;51310;52.198;5.422;2023-03-12T02:49:18;100780.94;;;1.07;100.00
64844;BME280;51310;52.198;5.422;2023-03-12T02:51:46;100765.50;;;1.05;100.00
64844;BME280;51310;52.198;5.422;2023-03-12T02:54:14;100756.50;;;1.07;100.00
64844;BME280;51310;52.198;5.422;2023-03-12T02:56:41;100755.06;;;1.09;100.00
64844;BME280;51310;52.198;5.422;2023-03-12T02:59:09;100758.81;;;1.06;100.00
64844;BME280;51310;52.198;5.422;2023-03-12T03:01:35;100751.72;;;1.03;100.00
64844;BME280;51310;52.198;5.422;2023-03-12T03:04:04;100739.97;;;1.03;100.00
64844;BME280;51310;52.198;5.422;2023-03-12T03:06:30;100738.44;;;1.11;100.00
64844;BME280;51310;52.198;5.422;2023-03-12T03:08:57;100736.63;;;1.10;100.00
64844;BME280;51310;52.198;5.422;2023-03-12T03:11:23;100733.59;;;1.13;100.00
64844;BME280;51310;52.198;5.422;2023-03-12T03:13:51;100735.09;;;1.18;100.00
64844;BME280;51310;52.198;5.422;2023-03-12T03:16:16;100724.94;;;1.18;100.00
64844;BME280;51310;52.198;5.422;2023-03-12T03:18:42;100719.69;;;1.16;100.00
64844;BME280;51310;52.198;5.422;2023-03-12T03:21:10;100719.88;;;1.18;100.00
64844;BME280;51310;52.198;5.422;2023-03-12T03:23:45;100710.56;;;1.24;100.00
64844;BME280;51310;52.198;5.422;2023-03-12T03:26:12;100723.75;;;1.21;100.00
64844;BME280;51310;52.198;5.422;2023-03-12T03:28:38;100714.50;;;1.22;100.00
64844;BME280;51310;52.198;5.422;2023-03-12T03:31:04;100711.75;;;1.20;100.00
64844;BME280;51310;52.198;5.422;2023-03-12T03:33:34;100705.56;;;1.18;100.00
64844;BME280;51310;52.198;5.422;2023-03-12T03:36:01;100695.25;;;1.17;100.00
64844;BME280;51310;52.198;5.422;2023-03-12T03:38:29;100696.84;;;1.16;100.00
64844;BME280;51310;52.198;5.422;2023-03-12T03:40:56;100689.97;;;1.15;100.00
64844;BME280;51310;52.198;5.422;2023-03-12T03:43:22;100687.66;;;1.17;100.00
64844;BME280;51310;52.198;5.422;2023-03-12T03:46:01;100680.66;;;1.21;100.00
64844;BME280;51310;52.198;5.422;2023-03-12T03:48:27;100671.81;;;1.25;100.00
64844;BME280;51310;52.198;5.422;2023-03-12T03:50:53;100678.28;;;1.23;100.00
64844;BME280;51310;52.198;5.422;2023-03-12T03:53:19;100666.66;;;1.18;100.00
64844;BME280;51310;52.198;5.422;2023-03-12T03:55:45;100664.84;;;1.17;100.00
64844;BME280;51310;52.198;5.422;2023-03-12T03:58:11;100656.13;;;1.15;100.00
64844;BME280;51310;52.198;5.422;2023-03-12T04:00:37;100662.69;;;1.20;100.00
64844;BME280;51310;52.198;5.422;2023-03-12T04:03:03;100660.75;;;1.25;100.00
64844;BME280;51310;52.198;5.422;2023-03-12T04:05:28;100659.34;;;1.27;100.00
64844;BME280;51310;52.198;5.422;2023-03-12T04:07:55;100659.91;;;1.31;100.00
64844;BME280;51310;52.198;5.422;2023-03-12T04:10:23;100661.44;;;1.36;100.00
64844;BME280;51310;52.198;5.422;2023-03-12T04:12:49;100662.34;;;1.37;100.00
64844;BME280;51310;52.198;5.422;2023-03-12T04:15:15;100664.56;;;1.41;100.00
64844;BME280;51310;52.198;5.422;2023-03-12T04:17:41;100649.88;;;1.38;100.00
64844;BME280;51310;52.198;5.422;2023-03-12T04:20:08;100652.22;;;1.37;100.00
64844;BME280;51310;52.198;5.422;2023-03-12T04:22:36;100653.53;;;1.40;100.00
64844;BME280;51310;52.198;5.422;2023-03-12T04:25:02;100655.34;;;1.41;100.00
64844;BME280;51310;52.198;5.422;2023-03-12T04:27:28;100660.03;;;1.38;100.00
64844;BME280;51310;52.198;5.422;2023-03-12T04:29:54;100650.19;;;1.34;100.00
64844;BME280;51310;52.198;5.422;2023-03-12T04:32:20;100657.50;;;1.38;100.00
64844;BME280;51310;52.198;5.422;2023-03-12T04:34:46;100648.47;;;1.40;100.00
64844;BME280;51310;52.198;5.422;2023-03-12T04:37:11;100655.91;;;1.46;100.00
64844;BME280;51310;52.198;5.422;2023-03-12T04:39:41;100650.31;;;1.49;100.00
64844;BME280;51310;52.198;5.422;2023-03-12T04:42:08;100641.72;;;1.54;100.00
64844;BME280;51310;52.198;5.422;2023-03-12T04:44:34;100635.69;;;1.53;100.00
64844;BME280;51310;52.198;5.422;2023-03-12T04:47:00;100638.97;;;1.52;100.00
64844;BME280;51310;52.198;5.422;2023-03-12T04:49:26;100630.25;;;1.50;100.00
64844;BME280;51310;52.198;5.422;2023-03-12T04:51:52;100626.81;;;1.50;100.00
64844;BME280;51310;52.198;5.422;2023-03-12T04:54:19;100614.13;;;1.50;100.00
64844;BME280;51310;52.198;5.422;2023-03-12T04:56:46;100607.03;;;1.47;100.00
64844;BME280;51310;52.198;5.422;2023-03-12T04:59:13;100589.19;;;1.40;100.00
64844;BME280;51310;52.198;5.422;2023-03-12T05:01:38;100588.63;;;1.35;100.00
64844;BME280;51310;52.198;5.422;2023-03-12T05:04:05;100584.78;;;1.32;100.00
64844;BME280;51310;52.198;5.422;2023-03-12T05:06:32;100581.28;;;1.24;100.00
64844;BME280;51310;52.198;5.422;2023-03-12T05:08:58;100578.16;;;1.19;100.00
64844;BME280;51310;52.198;5.422;2023-03-12T05:11:24;100573.34;;;1.28;100.00
64844;BME280;51310;52.198;5.422;2023-03-12T05:13:50;100572.75;;;1.23;100.00
64844;BME280;51310;52.198;5.422;2023-03-12T05:16:16;100570.34;;;1.18;100.00
64844;BME280;51310;52.198;5.422;2023-03-12T05:18:43;100556.03;;;1.18;100.00
64844;BME280;51310;52.198;5.422;2023-03-12T05:21:16;100569.13;;;1.21;100.00
64844;BME280;51310;52.198;5.422;2023-03-12T05:23:42;100557.72;;;1.25;100.00
64844;BME280;51310;52.198;5.422;2023-03-12T05:26:21;100553.75;;;1.27;100.00
64844;BME280;51310;52.198;5.422;2023-03-12T05:28:47;100555.97;;;1.31;100.00
64844;BME280;51310;52.198;5.422;2023-03-12T05:31:15;100559.41;;;1.32;100.00
64844;BME280;51310;52.198;5.422;2023-03-12T05:33:41;100553.66;;;1.33;100.00
64844;BME280;51310;52.198;5.422;2023-03-12T05:36:08;100558.72;;;1.33;100.00
64844;BME280;51310;52.198;5.422;2023-03-12T05:38:34;100557.28;;;1.35;100.00
64844;BME280;51310;52.198;5.422;2023-03-12T05:41:00;100546.63;;;1.37;100.00
64844;BME280;51310;52.198;5.422;2023-03-12T05:43:27;100548.63;;;1.40;100.00
64844;BME280;51310;52.198;5.422;2023-03-12T05:45:57;100546.69;;;1.44;100.00
64844;BME280;51310;52.198;5.422;2023-03-12T05:48:23;100540.13;;;1.39;100.00
64844;BME280;51310;52.198;5.422;2023-03-12T05:50:49;100535.06;;;1.39;100.00
64844;BME280;51310;52.198;5.422;2023-03-12T05:53:14;100523.09;;;1.38;100.00
64844;BME280;51310;52.198;5.422;2023-03-12T05:55:40;100510.06;;;1.42;100.00
64844;BME280;51310;52.198;5.422;2023-03-12T05:58:06;100518.78;;;1.44;100.00
64844;BME280;51310;52.198;5.422;2023-03-12T06:00:33;100527.38;;;1.52;100.00
64844;BME280;51310;52.198;5.422;2023-03-12T06:03:04;100527.94;;;1.57;100.00
64844;BME280;51310;52.198;5.422;2023-03-12T06:05:32;100528.28;;;1.53;100.00
64844;BME280;51310;52.198;5.422;2023-03-12T06:07:58;100513.25;;;1.54;100.00
64844;BME280;51310;52.198;5.422;2023-03-12T06:10:24;100515.06;;;1.55;100.00
64844;BME280;51310;52.198;5.422;2023-03-12T06:12:50;100522.88;;;1.57;100.00
64844;BME280;51310;52.198;5.422;2023-03-12T06:15:16;100512.03;;;1.58;100.00
64844;BME280;51310;52.198;5.422;2023-03-12T06:17:41;100516.06;;;1.63;100.00
64844;BME280;51310;52.198;5.422;2023-03-12T06:20:08;100527.09;;;1.63;100.00
64844;BME280;51310;52.198;5.422;2023-03-12T06:22:34;100526.19;;;1.63;100.00
64844;BME280;51310;52.198;5.422;2023-03-12T06:25:00;100529.09;;;1.66;100.00
64844;BME280;51310;52.198;5.422;2023-03-12T06:27:26;100524.97;;;1.67;100.00
64844;BME280;51310;52.198;5.422;2023-03-12T06:29:51;100527.88;;;1.70;100.00
64844;BME280;51310;52.198;5.422;2023-03-12T06:32:17;100523.59;;;1.76;100.00
64844;BME280;51310;52.198;5.422;2023-03-12T06:34:43;100520.47;;;1.71;100.00
64844;BME280;51310;52.198;5.422;2023-03-12T06:37:10;100520.78;;;1.67;100.00
64844;BME280;51310;52.198;5.422;2023-03-12T06:39:37;100525.47;;;1.64;100.00
64844;BME280;51310;52.198;5.422;2023-03-12T06:42:03;100516.81;;;1.69;100.00
64844;BME280;51310;52.198;5.422;2023-03-12T06:44:30;100510.66;;;1.67;100.00
64844;BME280;51310;52.198;5.422;2023-03-12T06:46:57;100521.16;;;1.70;100.00
64844;BME280;51310;52.198;5.422;2023-03-12T06:49:23;100518.06;;;1.66;100.00
64844;BME280;51310;52.198;5.422;2023-03-12T06:51:49;100507.00;;;1.65;100.00
64844;BME280;51310;52.198;5.422;2023-03-12T06:54:15;100494.09;;;1.56;100.00
64844;BME280;51310;52.198;5.422;2023-03-12T06:56:41;100498.25;;;1.56;100.00
64844;BME280;51310;52.198;5.422;2023-03-12T06:59:07;100496.13;;;1.66;100.00
64844;BME280;51310;52.198;5.422;2023-03-12T07:01:33;100482.88;;;1.61;100.00
64844;BME280;51310;52.198;5.422;2023-03-12T07:03:59;100479.41;;;1.54;100.00
64844;BME280;51310;52.198;5.422;2023-03-12T07:06:25;100487.38;;;1.57;100.00
64844;BME280;51310;52.198;5.422;2023-03-12T07:08:51;100470.03;;;1.60;100.00
64844;BME280;51310;52.198;5.422;2023-03-12T07:11:17;100467.81;;;1.56;100.00
64844;BME280;51310;52.198;5.422;2023-03-12T07:13:43;100460.22;;;1.56;100.00
64844;BME280;51310;52.198;5.422;2023-03-12T07:16:10;100451.34;;;1.59;100.00
64844;BME280;51310;52.198;5.422;2023-03-12T07:18:36;100456.28;;;1.65;100.00
64844;BME280;51310;52.198;5.422;2023-03-12T07:21:02;100455.53;;;1.66;100.00
64844;BME280;51310;52.198;5.422;2023-03-12T07:23:27;100453.94;;;1.67;100.00
64844;BME280;51310;52.198;5.422;2023-03-12T07:25:53;100469.72;;;1.71;100.00
64844;BME280;51310;52.198;5.422;2023-03-12T07:28:20;100473.50;;;1.68;100.00
64844;BME280;51310;52.198;5.422;2023-03-12T07:30:46;100475.38;;;1.76;100.00
64844;BME280;51310;52.198;5.422;2023-03-12T07:33:18;100465.94;;;1.75;100.00
64844;BME280;51310;52.198;5.422;2023-03-12T07:35:45;100469.72;;;1.71;100.00
64844;BME280;51310;52.198;5.422;2023-03-12T07:38:11;100493.13;;;1.76;100.00
64844;BME280;51310;52.198;5.422;2023-03-12T07:40:37;100483.69;;;1.75;100.00
64844;BME280;51310;52.198;5.422;2023-03-12T07:43:04;100490.28;;;1.80;100.00
64844;BME280;51310;52.198;5.422;2023-03-12T07:45:37;100509.28;;;1.83;100.00
64844;BME280;51310;52.198;5.422;2023-03-12T07:48:03;100509.16;;;1.89;100.00
64844;BME280;51310;52.198;5.422;2023-03-12T07:50:30;100519.34;;;1.96;100.00
64844;BME280;51310;52.198;5.422;2023-03-12T07:52:55;100509.38;;;1.91;100.00
64844;BME280;51310;52.198;5.422;2023-03-12T07:55:21;100514.28;;;1.96;100.00
64844;BME280;51310;52.198;5.422;2023-03-12T07:57:47;100512.72;;;2.04;100.00
64844;BME280;51310;52.198;5.422;2023-03-12T08:00:13;100504.91;;;2.02;100.00
64844;BME280;51310;52.198;5.422;2023-03-12T08:02:40;100514.34;;;2.03;100.00
64844;BME280;51310;52.198;5.422;2023-03-12T08:05:06;100509.09;;;2.09;100.00
64844;BME280;51310;52.198;5.422;2023-03-12T08:07:32;100511.50;;;2.15;100.00
64844;BME280;51310;52.198;5.422;2023-03-12T08:10:05;100503.75;;;2.20;100.00
64844;BME280;51310;52.198;5.422;2023-03-12T08:12:32;100497.97;;;2.29;100.00
64844;BME280;51310;52.198;5.422;2023-03-12T08:14:57;100488.19;;;2.32;100.00
64844;BME280;51310;52.198;5.422;2023-03-12T08:17:23;100480.19;;;2.29;100.00
64844;BME280;51310;52.198;5.422;2023-03-12T08:19:50;100479.13;;;2.34;100.00
64844;BME280;51310;52.198;5.422;2023-03-12T08:22:16;100484.03;;;2.39;100.00
64844;BME280;51310;52.198;5.422;2023-03-12T08:24:41;100479.91;;;2.40;100.00
64844;BME280;51310;52.198;5.422;2023-03-12T08:27:08;100484.25;;;2.48;100.00
64844;BME280;51310;52.198;5.422;2023-03-12T08:29:34;100492.25;;;2.51;100.00
64844;BME280;51310;52.198;5.422;2023-03-12T08:32:00;100497.16;;;2.57;100.00
64844;BME280;51310;52.198;5.422;2023-03-12T08:34:26;100487.19;;;2.58;100.00
64844;BME280;51310;52.198;5.422;2023-03-12T08:36:51;100484.31;;;2.70;100.00
64844;BME280;51310;52.198;5.422;2023-03-12T08:39:17;100479.78;;;2.74;100.00
64844;BME280;51310;52.198;5.422;2023-03-12T08:41:43;100494.53;;;2.77;100.00
64844;BME280;51310;52.198;5.422;2023-03-12T08:44:08;100486.38;;;2.86;100.00
64844;BME280;51310;52.198;5.422;2023-03-12T08:46:34;100480.75;;;2.82;100.00
64844;BME280;51310;52.198;5.422;2023-03-12T08:49:00;100484.38;;;2.91;100.00
64844;BME280;51310;52.198;5.422;2023-03-12T08:51:35;100502.50;;;2.80;100.00
64844;BME280;51310;52.198;5.422;2023-03-12T08:54:01;100485.63;;;2.80;100.00
64844;BME280;51310;52.198;5.422;2023-03-12T08:56:26;100490.94;;;2.96;100.00
64844;BME280;51310;52.198;5.422;2023-03-12T08:58:52;100484.41;;;2.98;100.00
64844;BME280;51310;52.198;5.422;2023-03-12T09:01:17;100483.16;;;3.09;100.00
64844;BME280;51310;52.198;5.422;2023-03-12T09:03:43;100481.31;;;3.15;100.00
64844;BME280;51310;52.198;5.422;2023-03-12T09:06:12;100488.44;;;3.18;100.00
64844;BME280;51310;52.198;5.422;2023-03-12T09:08:42;100492.81;;;3.33;100.00
64844;BME280;51310;52.198;5.422;2023-03-12T09:11:11;100493.88;;;3.42;100.00
64844;BME280;51310;52.198;5.422;2023-03-12T09:13:38;100497.16;;;3.56;100.00
64844;BME280;51310;52.198;5.422;2023-03-12T09:16:05;100487.16;;;3.72;100.00
64844;BME280;51310;52.198;5.422;2023-03-12T09:18:32;100487.69;;;3.76;100.00
64844;BME280;51310;52.198;5.422;2023-03-12T09:20:58;100482.94;;;3.79;100.00
64844;BME280;51310;52.198;5.422;2023-03-12T09:23:26;100472.88;;;4.09;100.00
64844;BME280;51310;52.198;5.422;2023-03-12T09:25:53;100477.63;;;4.06;100.00
64844;BME280;51310;52.198;5.422;2023-03-12T09:28:19;100478.16;;;4.04;100.00
64844;BME280;51310;52.198;5.422;2023-03-12T09:30:46;100472.69;;;4.15;100.00
64844;BME280;51310;52.198;5.422;2023-03-12T09:33:12;100457.72;;;4.32;100.00
64844;BME280;51310;52.198;5.422;2023-03-12T09:35:40;100474.38;;;4.52;100.00
64844;BME280;51310;52.198;5.422;2023-03-12T09:38:07;100471.59;;;4.58;100.00
64844;BME280;51310;52.198;5.422;2023-03-12T09:40:35;100472.84;;;4.61;100.00
64844;BME280;51310;52.198;5.422;2023-03-12T09:43:35;100484.69;;;4.61;100.00
64844;BME280;51310;52.198;5.422;2023-03-12T09:46:07;100484.06;;;4.78;100.00
64844;BME280;51310;52.198;5.422;2023-03-12T09:48:37;100486.44;;;4.76;100.00
64844;BME280;51310;52.198;5.422;2023-03-12T09:51:21;100481.53;;;4.78;100.00
64844;BME280;51310;52.198;5.422;2023-03-12T09:53:58;100488.03;;;4.83;100.00
64844;BME280;51310;52.198;5.422;2023-03-12T09:56:26;100474.06;;;5.02;100.00
64844;BME280;51310;52.198;5.422;2023-03-12T09:58:51;100478.72;;;5.13;100.00
64844;BME280;51310;52.198;5.422;2023-03-12T10:01:43;100482.47;;;5.24;100.00
64844;BME280;51310;52.198;5.422;2023-03-12T10:06:57;100485.50;;;5.36;100.00
64844;BME280;51310;52.198;5.422;2023-03-12T10:12:46;100485.53;;;5.52;100.00
64844;BME280;51310;52.198;5.422;2023-03-12T10:21:34;100490.69;;;5.68;100.00
64844;BME280;51310;52.198;5.422;2023-03-12T10:27:14;100481.00;;;5.88;100.00
64844;BME280;51310;52.198;5.422;2023-03-12T10:29:51;100483.16;;;6.15;100.00
64844;BME280;51310;52.198;5.422;2023-03-12T10:32:29;100480.59;;;6.31;100.00
64844;BME280;51310;52.198;5.422;2023-03-12T10:35:06;100474.84;;;6.50;100.00
64844;BME280;51310;52.198;5.422;2023-03-12T10:37:43;100477.06;;;6.63;100.00
64844;BME280;51310;52.198;5.422;2023-03-12T10:40:21;100483.91;;;6.71;100.00
64844;BME280;51310;52.198;5.422;2023-03-12T10:42:47;100489.09;;;6.80;100.00
64844;BME280;51310;52.198;5.422;2023-03-12T10:46:04;100477.91;;;6.95;100.00
64844;BME280;51310;52.198;5.422;2023-03-12T10:48:34;100476.22;;;7.11;100.00
64844;BME280;51310;52.198;5.422;2023-03-12T10:51:09;100471.50;;;7.32;100.00
64844;BME280;51310;52.198;5.422;2023-03-12T10:53:39;100467.41;;;7.58;100.00
64844;BME280;51310;52.198;5.422;2023-03-12T10:58:45;100476.94;;;7.77;100.00
64844;BME280;51310;52.198;5.422;2023-03-12T11:01:27;100480.66;;;8.05;100.00
64844;BME280;51310;52.198;5.422;2023-03-12T11:04:18;100465.47;;;8.33;100.00
64844;BME280;51310;52.198;5.422;2023-03-12T11:07:15;100484.91;;;8.22;100.00
64844;BME280;51310;52.198;5.422;2023-03-12T11:09:43;100475.88;;;8.26;100.00
64844;BME280;51310;52.198;5.422;2023-03-12T11:12:29;100469.53;;;8.22;100.00
64844;BME280;51310;52.198;5.422;2023-03-12T11:14:57;100477.06;;;8.29;100.00
64844;BME280;51310;52.198;5.422;2023-03-12T11:17:26;100471.63;;;8.26;100.00
64844;BME280;51310;52.198;5.422;2023-03-12T11:19:53;100484.00;;;8.21;100.00
64844;BME280;51310;52.198;5.422;2023-03-12T11:22:33;100489.28;;;8.23;100.00
64844;BME280;51310;52.198;5.422;2023-03-12T11:25:06;100493.47;;;8.14;100.00
64844;BME280;51310;52.198;5.422;2023-03-12T11:27:45;100496.63;;;8.02;100.00
64844;BME280;51310;52.198;5.422;2023-03-12T11:30:22;100497.06;;;7.98;100.00
64844;BME280;51310;52.198;5.422;2023-03-12T11:32:50;100504.03;;;7.99;100.00
64844;BME280;51310;52.198;5.422;2023-03-12T11:36:12;100501.72;;;7.94;100.00
64844;BME280;51310;52.198;5.422;2023-03-12T11:38:19;100508.19;;;7.90;100.00
64844;BME280;51310;52.198;5.422;2023-03-12T11:43:48;100497.03;;;7.90;100.00
64844;BME280;51310;52.198;5.422;2023-03-12T11:55:06;100495.41;;;8.08;100.00
64844;BME280;51310;52.198;5.422;2023-03-12T12:03:51;100472.97;;;8.14;100.00
64844;BME280;51310;52.198;5.422;2023-03-12T12:09:42;100467.81;;;8.05;100.00
64844;BME280;51310;52.198;5.422;2023-03-12T12:15:12;100460.94;;;8.21;100.00
64844;BME280;51310;52.198;5.422;2023-03-12T12:18:01;100459.72;;;8.18;100.00
64844;BME280;51310;52.198;5.422;2023-03-12T12:23:53;100458.38;;;8.39;100.00
64844;BME280;51310;52.198;5.422;2023-03-12T12:27:27;100460.16;;;8.31;100.00
64844;BME280;51310;52.198;5.422;2023-03-12T12:30:03;100458.53;;;8.32;100.00
64844;BME280;51310;52.198;5.422;2023-03-12T12:32:58;100451.75;;;8.32;100.00
64844;BME280;51310;52.198;5.422;2023-03-12T12:35:38;100445.16;;;8.43;100.00
64844;BME280;51310;52.198;5.422;2023-03-12T12:38:27;100433.38;;;8.54;100.00
64844;BME280;51310;52.198;5.422;2023-03-12T12:41:36;100432.75;;;8.56;100.00
64844;BME280;51310;52.198;5.422;2023-03-12T12:44:54;100455.84;;;8.74;100.00
64844;BME280;51310;52.198;5.422;2023-03-12T12:47:39;100451.31;;;8.71;100.00
64844;BME280;51310;52.198;5.422;2023-03-12T12:50:18;100444.84;;;8.75;100.00
64844;BME280;51310;52.198;5.422;2023-03-12T12:52:52;100435.03;;;8.71;100.00
64844;BME280;51310;52.198;5.422;2023-03-12T12:55:31;100431.66;;;8.80;100.00
64844;BME280;51310;52.198;5.422;2023-03-12T12:58:10;100423.38;;;8.74;100.00
64844;BME280;51310;52.198;5.422;2023-03-12T13:00:54;100413.44;;;8.77;100.00
64844;BME280;51310;52.198;5.422;2023-03-12T13:03:25;100425.47;;;8.87;100.00
64844;BME280;51310;52.198;5.422;2023-03-12T13:16:40;100409.88;;;9.12;100.00
64844;BME280;51310;52.198;5.422;2023-03-12T13:22:06;100419.38;;;9.04;100.00
64844;BME280;51310;52.198;5.422;2023-03-12T13:24:58;100422.44;;;8.91;100.00
64844;BME280;51310;52.198;5.422;2023-03-12T13:27:37;100414.44;;;8.97;100.00
64844;BME280;51310;52.198;5.422;2023-03-12T13:46:11;100423.06;;;9.34;100.00
64844;BME280;51310;52.198;5.422;2023-03-12T13:48:47;100435.13;;;9.35;100.00
64844;BME280;51310;52.198;5.422;2023-03-12T13:51:23;100443.78;;;9.63;100.00
64844;BME280;51310;52.198;5.422;2023-03-12T13:54:00;100432.91;;;9.65;100.00
64844;BME280;51310;52.198;5.422;2023-03-12T13:56:30;100429.81;;;9.97;100.00
64844;BME280;51310;52.198;5.422;2023-03-12T13:59:06;100415.13;;;10.24;100.00
64844;BME280;51310;52.198;5.422;2023-03-12T14:01:47;100418.72;;;10.35;100.00
64844;BME280;51310;52.198;5.422;2023-03-12T14:04:21;100430.78;;;10.55;100.00
64844;BME280;51310;52.198;5.422;2023-03-12T14:15:13;100431.34;;;10.90;100.00
64844;BME280;51310;52.198;5.422;2023-03-12T14:17:43;100431.25;;;10.99;100.00
64844;BME280;51310;52.198;5.422;2023-03-12T14:20:16;100424.13;;;11.15;100.00
64844;BME280;51310;52.198;5.422;2023-03-12T14:22:51;100423.19;;;11.04;100.00
64844;BME280;51310;52.198;5.422;2023-03-12T14:25:34;100446.72;;;10.99;100.00
64844;BME280;51310;52.198;5.422;2023-03-12T14:28:03;100455.94;;;10.86;100.00
64844;BME280;51310;52.198;5.422;2023-03-12T14:30:55;100466.19;;;10.57;100.00
64844;BME280;51310;52.198;5.422;2023-03-12T14:33:24;100473.97;;;10.49;100.00
64844;BME280;51310;52.198;5.422;2023-03-12T14:36:12;100476.75;;;10.60;100.00